sensor_id;sensor_type;location;lat;lon;timestamp;temperature;humidity
19652;DHT22;9974;52.146;14.668;2024-02-26T00:00:00;2.80;99.90
19652;DHT22;9974;52.146;14.668;2024-02-26T00:02:25;2.80;99.90
19652;DHT22;9974;52.146;14.668;2024-02-26T00:04:51;2.90;99.90
19652;DHT22;9974;52.146;14.668;2024-02-26T00:07:16;2.90;99.90
19652;DHT22;9974;52.146;14.668;2024-02-26T00:09:42;2.70;99.90
19652;DHT22;9974;52.146;14.668;2024-02-26T00:12:08;2.70;99.90
19652;DHT22;9974;52.146;14.668;2024-02-26T00:14:33;2.70;99.90
19652;DHT22;9974;52.146;14.668;2024-02-26T00:16:59;2.60;99.90
19652;DHT22;9974;52.146;14.668;2024-02-26T00:19:25;2.60;99.90
19652;DHT22;9974;52.146;14.668;2024-02-26T00:21:50;2.60;99.90
19652;DHT22;9974;52.146;14.668;2024-02-26T00:24:16;2.60;99.90
19652;DHT22;9974;52.146;14.668;2024-02-26T00:26:41;2.60;99.90
19652;DHT22;9974;52.146;14.668;2024-02-26T00:29:07;2.60;99.90
19652;DHT22;9974;52.146;14.668;2024-02-26T00:31:33;2.40;99.90
19652;DHT22;9974;52.146;14.668;2024-02-26T00:33:58;2.50;99.90
19652;DHT22;9974;52.146;14.668;2024-02-26T00:36:24;2.50;99.90
19652;DHT22;9974;52.146;14.668;2024-02-26T00:38:50;2.40;99.90
19652;DHT22;9974;52.146;14.668;2024-02-26T00:41:18;2.40;99.90
19652;DHT22;9974;52.146;14.668;2024-02-26T00:43:44;2.40;99.90
19652;DHT22;9974;52.146;14.668;2024-02-26T00:46:09;2.70;99.90
19652;DHT22;9974;52.146;14.668;2024-02-26T00:48:35;2.40;99.90
19652;DHT22;9974;52.146;14.668;2024-02-26T00:51:01;2.30;99.90
19652;DHT22;9974;52.146;14.668;2024-02-26T00:53:26;2.30;99.90
19652;DHT22;9974;52.146;14.668;2024-02-26T00:55:53;2.30;99.90
19652;DHT22;9974;52.146;14.668;2024-02-26T00:58:19;2.20;99.90
19652;DHT22;9974;52.146;14.668;2024-02-26T01:00:45;2.40;99.90
19652;DHT22;9974;52.146;14.668;2024-02-26T01:03:10;2.40;99.90
19652;DHT22;9974;52.146;14.668;2024-02-26T01:05:36;2.20;99.90
19652;DHT22;9974;52.146;14.668;2024-02-26T01:08:03;2.00;99.90
19652;DHT22;9974;52.146;14.668;2024-02-26T01:10:29;2.00;99.90
19652;DHT22;9974;52.146;14.668;2024-02-26T01:12:55;1.90;99.90
19652;DHT22;9974;52.146;14.668;2024-02-26T01:15:20;2.00;99.90
19652;DHT22;9974;52.146;14.668;2024-02-26T01:17:49;2.20;99.90
19652;DHT22;9974;52.146;14.668;2024-02-26T01:20:17;2.20;99.90
19652;DHT22;9974;52.146;14.668;2024-02-26T01:22:43;2.30;99.90
19652;DHT22;9974;52.146;14.668;2024-02-26T01:25:09;2.30;99.90
19652;DHT22;9974;52.146;14.668;2024-02-26T01:27:35;2.30;99.90
19652;DHT22;9974;52.146;14.668;2024-02-26T01:30:02;2.30;99.90
19652;DHT22;9974;52.146;14.668;2024-02-26T01:32:31;2.10;99.90
19652;DHT22;9974;52.146;14.668;2024-02-26T01:34:57;2.10;99.90
19652;DHT22;9974;52.146;14.668;2024-02-26T01:37:22;2.10;99.90
19652;DHT22;9974;52.146;14.668;2024-02-26T01:39:48;2.20;99.90
19652;DHT22;9974;52.146;14.668;2024-02-26T01:42:14;2.00;99.90
19652;DHT22;9974;52.146;14.668;2024-02-26T01:44:39;2.00;99.90
19652;DHT22;9974;52.146;14.668;2024-02-26T01:47:05;1.90;99.90
19652;DHT22;9974;52.146;14.668;2024-02-26T01:49:33;1.90;99.90
19652;DHT22;9974;52.146;14.668;2024-02-26T01:52:00;2.00;99.90
19652;DHT22;9974;52.146;14.668;2024-02-26T01:54:27;2.00;99.90
19652;DHT22;9974;52.146;14.668;2024-02-26T01:56:52;1.90;99.90
19652;DHT22;9974;52.146;14.668;2024-02-26T01:59:18;2.00;99.90
19652;DHT22;9974;52.146;14.668;2024-02-26T02:01:44;2.10;99.90
19652;DHT22;9974;52.146;14.668;2024-02-26T02:04:13;2.10;99.90
19652;DHT22;9974;52.146;14.668;2024-02-26T02:06:40;2.10;99.90
19652;DHT22;9974;52.146;14.668;2024-02-26T02:09:06;2.20;99.90
19652;DHT22;9974;52.146;14.668;2024-02-26T02:11:33;2.10;99.90
19652;DHT22;9974;52.146;14.668;2024-02-26T02:13:59;2.10;99.90
19652;DHT22;9974;52.146;14.668;2024-02-26T02:16:24;2.30;99.90
19652;DHT22;9974;52.146;14.668;2024-02-26T02:18:50;2.30;99.90
19652;DHT22;9974;52.146;14.668;2024-02-26T02:21:16;2.30;99.90
19652;DHT22;9974;52.146;14.668;2024-02-26T02:23:42;2.10;99.90
19652;DHT22;9974;52.146;14.668;2024-02-26T02:26:11;2.10;99.90
19652;DHT22;9974;52.146;14.668;2024-02-26T02:28:40;2.20;99.90
19652;DHT22;9974;52.146;14.668;2024-02-26T02:31:06;2.30;99.90
19652;DHT22;9974;52.146;14.668;2024-02-26T02:33:32;2.30;99.90
19652;DHT22;9974;52.146;14.668;2024-02-26T02:35:58;2.20;99.90
19652;DHT22;9974;52.146;14.668;2024-02-26T02:38:24;2.20;99.90
19652;DHT22;9974;52.146;14.668;2024-02-26T02:40:51;1.80;99.90
19652;DHT22;9974;52.146;14.668;2024-02-26T02:43:17;2.00;99.90
19652;DHT22;9974;52.146;14.668;2024-02-26T02:45:43;2.00;99.90
19652;DHT22;9974;52.146;14.668;2024-02-26T02:48:08;2.00;99.90
19652;DHT22;9974;52.146;14.668;2024-02-26T02:50:34;2.10;99.90
19652;DHT22;9974;52.146;14.668;2024-02-26T02:52:59;1.90;99.90
19652;DHT22;9974;52.146;14.668;2024-02-26T02:55:25;2.00;99.90
19652;DHT22;9974;52.146;14.668;2024-02-26T02:57:51;2.00;99.90
19652;DHT22;9974;52.146;14.668;2024-02-26T03:00:16;1.90;99.90
19652;DHT22;9974;52.146;14.668;2024-02-26T03:02:42;1.70;99.90
19652;DHT22;9974;52.146;14.668;2024-02-26T03:05:10;1.70;99.90
19652;DHT22;9974;52.146;14.668;2024-02-26T03:07:35;1.70;99.90
19652;DHT22;9974;52.146;14.668;2024-02-26T03:10:01;1.60;99.90
19652;DHT22;9974;52.146;14.668;2024-02-26T03:12:27;1.50;99.90
19652;DHT22;9974;52.146;14.668;2024-02-26T03:14:53;1.50;99.90
19652;DHT22;9974;52.146;14.668;2024-02-26T03:17:19;1.40;99.90
19652;DHT22;9974;52.146;14.668;2024-02-26T03:19:46;1.30;99.90
19652;DHT22;9974;52.146;14.668;2024-02-26T03:22:12;1.30;99.90
19652;DHT22;9974;52.146;14.668;2024-02-26T03:24:38;1.40;99.90
19652;DHT22;9974;52.146;14.668;2024-02-26T03:27:04;1.50;99.90
19652;DHT22;9974;52.146;14.668;2024-02-26T03:29:35;1.40;99.90
19652;DHT22;9974;52.146;14.668;2024-02-26T03:32:01;1.40;99.90
19652;DHT22;9974;52.146;14.668;2024-02-26T03:34:26;1.40;99.90
19652;DHT22;9974;52.146;14.668;2024-02-26T03:36:52;1.50;99.90
19652;DHT22;9974;52.146;14.668;2024-02-26T03:39:18;1.40;99.90
19652;DHT22;9974;52.146;14.668;2024-02-26T03:41:43;1.40;99.90
19652;DHT22;9974;52.146;14.668;2024-02-26T03:44:09;1.40;99.90
19652;DHT22;9974;52.146;14.668;2024-02-26T03:46:35;1.30;99.90
19652;DHT22;9974;52.146;14.668;2024-02-26T03:49:00;1.40;99.90
19652;DHT22;9974;52.146;14.668;2024-02-26T03:51:26;1.30;99.90
19652;DHT22;9974;52.146;14.668;2024-02-26T03:53:56;1.30;99.90
19652;DHT22;9974;52.146;14.668;2024-02-26T03:56:23;1.10;99.90
19652;DHT22;9974;52.146;14.668;2024-02-26T03:58:49;1.10;99.90
19652;DHT22;9974;52.146;14.668;2024-02-26T04:01:14;1.30;99.90
19652;DHT22;9974;52.146;14.668;2024-02-26T04:03:40;1.40;99.90
19652;DHT22;9974;52.146;14.668;2024-02-26T04:06:08;1.30;99.90
19652;DHT22;9974;52.146;14.668;2024-02-26T04:08:34;1.30;99.90
19652;DHT22;9974;52.146;14.668;2024-02-26T04:11:00;1.10;99.90
19652;DHT22;9974;52.146;14.668;2024-02-26T04:13:26;1.10;99.90
19652;DHT22;9974;52.146;14.668;2024-02-26T04:15:51;1.00;99.90
19652;DHT22;9974;52.146;14.668;2024-02-26T04:18:17;1.00;99.90
19652;DHT22;9974;52.146;14.668;2024-02-26T04:20:42;0.90;99.90
19652;DHT22;9974;52.146;14.668;2024-02-26T04:23:08;1.10;99.90
19652;DHT22;9974;52.146;14.668;2024-02-26T04:25:34;1.10;99.90
19652;DHT22;9974;52.146;14.668;2024-02-26T04:27:59;1.10;99.90
19652;DHT22;9974;52.146;14.668;2024-02-26T04:30:25;1.00;99.90
19652;DHT22;9974;52.146;14.668;2024-02-26T04:32:50;1.00;99.90
19652;DHT22;9974;52.146;14.668;2024-02-26T04:35:16;1.00;99.90
19652;DHT22;9974;52.146;14.668;2024-02-26T04:37:42;1.00;99.90
19652;DHT22;9974;52.146;14.668;2024-02-26T04:40:07;1.00;99.90
19652;DHT22;9974;52.146;14.668;2024-02-26T04:42:33;0.90;99.90
19652;DHT22;9974;52.146;14.668;2024-02-26T04:44:59;0.90;99.90
19652;DHT22;9974;52.146;14.668;2024-02-26T04:47:24;0.90;99.90
19652;DHT22;9974;52.146;14.668;2024-02-26T04:49:50;0.80;99.90
19652;DHT22;9974;52.146;14.668;2024-02-26T04:52:16;0.80;99.90
19652;DHT22;9974;52.146;14.668;2024-02-26T04:54:41;0.80;99.90
19652;DHT22;9974;52.146;14.668;2024-02-26T04:57:07;0.90;99.90
19652;DHT22;9974;52.146;14.668;2024-02-26T04:59:32;0.80;99.90
19652;DHT22;9974;52.146;14.668;2024-02-26T05:01:58;0.80;99.90
19652;DHT22;9974;52.146;14.668;2024-02-26T05:04:24;0.80;99.90
19652;DHT22;9974;52.146;14.668;2024-02-26T05:06:49;0.80;99.90
19652;DHT22;9974;52.146;14.668;2024-02-26T05:09:15;0.80;99.90
19652;DHT22;9974;52.146;14.668;2024-02-26T05:11:40;0.80;99.90
19652;DHT22;9974;52.146;14.668;2024-02-26T05:14:06;0.80;99.90
19652;DHT22;9974;52.146;14.668;2024-02-26T05:16:32;0.80;99.90
19652;DHT22;9974;52.146;14.668;2024-02-26T05:18:57;1.00;99.90
19652;DHT22;9974;52.146;14.668;2024-02-26T05:21:23;0.80;99.90
19652;DHT22;9974;52.146;14.668;2024-02-26T05:23:48;0.70;99.90
19652;DHT22;9974;52.146;14.668;2024-02-26T05:26:20;0.70;99.90
19652;DHT22;9974;52.146;14.668;2024-02-26T05:31:13;0.70;99.90
19652;DHT22;9974;52.146;14.668;2024-02-26T05:33:39;0.80;99.90
19652;DHT22;9974;52.146;14.668;2024-02-26T05:36:05;0.80;99.90
19652;DHT22;9974;52.146;14.668;2024-02-26T05:38:30;0.70;99.90
19652;DHT22;9974;52.146;14.668;2024-02-26T05:40:57;0.80;99.90
19652;DHT22;9974;52.146;14.668;2024-02-26T05:43:24;0.80;99.90
19652;DHT22;9974;52.146;14.668;2024-02-26T05:45:50;0.70;99.90
19652;DHT22;9974;52.146;14.668;2024-02-26T05:48:16;0.70;99.90
19652;DHT22;9974;52.146;14.668;2024-02-26T05:53:07;0.80;99.90
19652;DHT22;9974;52.146;14.668;2024-02-26T05:55:33;0.80;99.90
19652;DHT22;9974;52.146;14.668;2024-02-26T05:57:58;0.90;99.90
19652;DHT22;9974;52.146;14.668;2024-02-26T06:00:24;0.70;99.90
19652;DHT22;9974;52.146;14.668;2024-02-26T06:02:50;0.70;99.90
19652;DHT22;9974;52.146;14.668;2024-02-26T06:05:15;0.60;99.90
19652;DHT22;9974;52.146;14.668;2024-02-26T06:07:41;0.80;99.90
19652;DHT22;9974;52.146;14.668;2024-02-26T06:10:06;0.90;99.90
19652;DHT22;9974;52.146;14.668;2024-02-26T06:12:34;0.80;99.90
19652;DHT22;9974;52.146;14.668;2024-02-26T06:15:00;0.80;99.90
19652;DHT22;9974;52.146;14.668;2024-02-26T06:17:26;0.90;99.90
19652;DHT22;9974;52.146;14.668;2024-02-26T06:19:52;0.80;99.90
19652;DHT22;9974;52.146;14.668;2024-02-26T06:22:18;0.80;99.90
19652;DHT22;9974;52.146;14.668;2024-02-26T06:24:44;1.00;99.90
19652;DHT22;9974;52.146;14.668;2024-02-26T06:27:09;0.90;99.90
19652;DHT22;9974;52.146;14.668;2024-02-26T06:29:35;1.00;99.90
19652;DHT22;9974;52.146;14.668;2024-02-26T06:32:00;0.90;99.90
19652;DHT22;9974;52.146;14.668;2024-02-26T06:34:26;0.80;99.90
19652;DHT22;9974;52.146;14.668;2024-02-26T06:36:51;1.00;99.90
19652;DHT22;9974;52.146;14.668;2024-02-26T06:39:17;1.00;99.90
19652;DHT22;9974;52.146;14.668;2024-02-26T06:41:44;1.20;99.90
19652;DHT22;9974;52.146;14.668;2024-02-26T06:44:12;1.20;99.90
19652;DHT22;9974;52.146;14.668;2024-02-26T06:46:38;1.30;99.90
19652;DHT22;9974;52.146;14.668;2024-02-26T06:49:03;1.30;99.90
19652;DHT22;9974;52.146;14.668;2024-02-26T06:51:29;1.40;99.90
19652;DHT22;9974;52.146;14.668;2024-02-26T06:56:20;1.40;99.90
19652;DHT22;9974;52.146;14.668;2024-02-26T06:58:46;1.50;99.90
19652;DHT22;9974;52.146;14.668;2024-02-26T07:01:12;1.50;99.90
19652;DHT22;9974;52.146;14.668;2024-02-26T07:03:39;1.50;99.90
19652;DHT22;9974;52.146;14.668;2024-02-26T07:06:05;1.60;99.90
19652;DHT22;9974;52.146;14.668;2024-02-26T07:08:32;1.60;99.90
19652;DHT22;9974;52.146;14.668;2024-02-26T07:10:57;1.80;99.90
19652;DHT22;9974;52.146;14.668;2024-02-26T07:13:23;1.80;99.90
19652;DHT22;9974;52.146;14.668;2024-02-26T07:15:48;1.90;99.90
19652;DHT22;9974;52.146;14.668;2024-02-26T07:18:14;1.80;99.90
19652;DHT22;9974;52.146;14.668;2024-02-26T07:20:40;1.90;99.90
19652;DHT22;9974;52.146;14.668;2024-02-26T07:25:32;2.00;99.90
19652;DHT22;9974;52.146;14.668;2024-02-26T07:27:57;2.20;99.90
19652;DHT22;9974;52.146;14.668;2024-02-26T07:30:23;2.30;99.90
19652;DHT22;9974;52.146;14.668;2024-02-26T07:32:50;2.40;99.90
19652;DHT22;9974;52.146;14.668;2024-02-26T07:35:15;2.50;99.90
19652;DHT22;9974;52.146;14.668;2024-02-26T07:37:42;2.60;99.90
19652;DHT22;9974;52.146;14.668;2024-02-26T07:40:08;2.70;99.90
19652;DHT22;9974;52.146;14.668;2024-02-26T07:42:34;2.80;99.90
19652;DHT22;9974;52.146;14.668;2024-02-26T07:45:00;2.90;99.90
19652;DHT22;9974;52.146;14.668;2024-02-26T07:47:25;3.00;99.90
19652;DHT22;9974;52.146;14.668;2024-02-26T07:49:51;3.20;99.90
19652;DHT22;9974;52.146;14.668;2024-02-26T07:52:16;3.20;99.90
19652;DHT22;9974;52.146;14.668;2024-02-26T07:54:42;3.40;99.90
19652;DHT22;9974;52.146;14.668;2024-02-26T07:57:08;3.50;99.90
19652;DHT22;9974;52.146;14.668;2024-02-26T07:59:33;3.70;99.90
19652;DHT22;9974;52.146;14.668;2024-02-26T08:01:59;3.70;99.90
19652;DHT22;9974;52.146;14.668;2024-02-26T08:04:25;3.70;99.90
19652;DHT22;9974;52.146;14.668;2024-02-26T08:06:52;3.80;99.90
19652;DHT22;9974;52.146;14.668;2024-02-26T08:09:17;3.30;99.90
19652;DHT22;9974;52.146;14.668;2024-02-26T08:11:43;4.00;99.90
19652;DHT22;9974;52.146;14.668;2024-02-26T08:14:08;4.00;99.90
19652;DHT22;9974;52.146;14.668;2024-02-26T08:16:34;4.20;99.90
19652;DHT22;9974;52.146;14.668;2024-02-26T08:18:59;4.40;99.90
19652;DHT22;9974;52.146;14.668;2024-02-26T08:21:25;4.50;99.90
19652;DHT22;9974;52.146;14.668;2024-02-26T08:23:51;4.50;99.90
19652;DHT22;9974;52.146;14.668;2024-02-26T08:26:16;4.60;99.90
19652;DHT22;9974;52.146;14.668;2024-02-26T08:28:42;4.70;99.90
19652;DHT22;9974;52.146;14.668;2024-02-26T08:31:07;4.90;99.90
19652;DHT22;9974;52.146;14.668;2024-02-26T08:33:33;5.10;99.90
19652;DHT22;9974;52.146;14.668;2024-02-26T08:36:03;5.30;99.90
19652;DHT22;9974;52.146;14.668;2024-02-26T08:38:32;5.40;99.90
19652;DHT22;9974;52.146;14.668;2024-02-26T08:41:00;5.50;99.90
19652;DHT22;9974;52.146;14.668;2024-02-26T08:43:28;5.80;99.90
19652;DHT22;9974;52.146;14.668;2024-02-26T08:45:54;5.90;99.90
19652;DHT22;9974;52.146;14.668;2024-02-26T08:48:19;6.10;99.90
19652;DHT22;9974;52.146;14.668;2024-02-26T08:50:45;6.20;99.90
19652;DHT22;9974;52.146;14.668;2024-02-26T08:53:11;6.30;99.90
19652;DHT22;9974;52.146;14.668;2024-02-26T08:55:36;6.50;99.90
19652;DHT22;9974;52.146;14.668;2024-02-26T08:58:02;6.50;99.90
19652;DHT22;9974;52.146;14.668;2024-02-26T09:00:27;6.60;99.90
19652;DHT22;9974;52.146;14.668;2024-02-26T09:02:53;6.70;99.90
19652;DHT22;9974;52.146;14.668;2024-02-26T09:05:19;6.70;99.90
19652;DHT22;9974;52.146;14.668;2024-02-26T09:07:44;6.80;99.90
19652;DHT22;9974;52.146;14.668;2024-02-26T09:10:11;6.80;99.90
19652;DHT22;9974;52.146;14.668;2024-02-26T09:12:37;7.00;99.90
19652;DHT22;9974;52.146;14.668;2024-02-26T09:15:03;7.20;99.90
19652;DHT22;9974;52.146;14.668;2024-02-26T09:17:29;7.20;99.90
19652;DHT22;9974;52.146;14.668;2024-02-26T09:19:54;7.30;99.90
19652;DHT22;9974;52.146;14.668;2024-02-26T09:22:20;7.40;99.90
19652;DHT22;9974;52.146;14.668;2024-02-26T09:24:46;7.40;99.90
19652;DHT22;9974;52.146;14.668;2024-02-26T09:27:11;7.60;99.90
19652;DHT22;9974;52.146;14.668;2024-02-26T09:29:37;7.50;99.90
19652;DHT22;9974;52.146;14.668;2024-02-26T09:32:03;7.60;99.90
19652;DHT22;9974;52.146;14.668;2024-02-26T09:34:28;7.80;99.90
19652;DHT22;9974;52.146;14.668;2024-02-26T09:36:54;7.90;99.90
19652;DHT22;9974;52.146;14.668;2024-02-26T09:39:19;8.10;99.90
19652;DHT22;9974;52.146;14.668;2024-02-26T09:41:49;8.10;99.90
19652;DHT22;9974;52.146;14.668;2024-02-26T09:44:15;8.20;99.90
19652;DHT22;9974;52.146;14.668;2024-02-26T09:46:44;8.40;99.90
19652;DHT22;9974;52.146;14.668;2024-02-26T09:49:10;8.40;99.90
19652;DHT22;9974;52.146;14.668;2024-02-26T09:51:37;8.50;99.90
19652;DHT22;9974;52.146;14.668;2024-02-26T09:54:03;8.50;99.90
19652;DHT22;9974;52.146;14.668;2024-02-26T09:56:29;8.60;99.90
19652;DHT22;9974;52.146;14.668;2024-02-26T09:58:55;8.70;99.90
19652;DHT22;9974;52.146;14.668;2024-02-26T10:01:22;8.80;99.90
19652;DHT22;9974;52.146;14.668;2024-02-26T10:03:51;8.90;99.90
19652;DHT22;9974;52.146;14.668;2024-02-26T10:06:20;9.00;99.90
19652;DHT22;9974;52.146;14.668;2024-02-26T10:08:46;9.00;99.90
19652;DHT22;9974;52.146;14.668;2024-02-26T10:11:12;9.10;99.90
19652;DHT22;9974;52.146;14.668;2024-02-26T10:13:39;9.20;99.90
19652;DHT22;9974;52.146;14.668;2024-02-26T10:16:05;9.30;99.90
19652;DHT22;9974;52.146;14.668;2024-02-26T10:18:50;9.40;99.90
19652;DHT22;9974;52.146;14.668;2024-02-26T10:21:17;9.60;99.90
19652;DHT22;9974;52.146;14.668;2024-02-26T10:23:43;9.70;99.90
19652;DHT22;9974;52.146;14.668;2024-02-26T10:26:10;9.90;99.90
19652;DHT22;9974;52.146;14.668;2024-02-26T10:28:36;9.90;99.90
19652;DHT22;9974;52.146;14.668;2024-02-26T10:31:02;10.00;99.90
19652;DHT22;9974;52.146;14.668;2024-02-26T10:35:54;10.20;99.90
19652;DHT22;9974;52.146;14.668;2024-02-26T10:38:19;10.20;99.90
19652;DHT22;9974;52.146;14.668;2024-02-26T10:40:46;10.20;99.90
19652;DHT22;9974;52.146;14.668;2024-02-26T10:43:13;10.30;99.90
19652;DHT22;9974;52.146;14.668;2024-02-26T10:45:42;10.40;99.90
19652;DHT22;9974;52.146;14.668;2024-02-26T10:48:13;10.50;99.90
19652;DHT22;9974;52.146;14.668;2024-02-26T10:50:39;10.60;99.90
19652;DHT22;9974;52.146;14.668;2024-02-26T10:53:07;10.70;99.90
19652;DHT22;9974;52.146;14.668;2024-02-26T10:55:48;10.80;99.90
19652;DHT22;9974;52.146;14.668;2024-02-26T10:58:15;10.80;99.90
19652;DHT22;9974;52.146;14.668;2024-02-26T11:00:42;10.90;99.90
19652;DHT22;9974;52.146;14.668;2024-02-26T11:03:08;10.80;99.90
19652;DHT22;9974;52.146;14.668;2024-02-26T11:05:35;11.00;99.90
19652;DHT22;9974;52.146;14.668;2024-02-26T11:08:01;11.00;99.90
19652;DHT22;9974;52.146;14.668;2024-02-26T11:10:27;10.90;99.90
19652;DHT22;9974;52.146;14.668;2024-02-26T11:12:55;11.10;99.90
19652;DHT22;9974;52.146;14.668;2024-02-26T11:15:22;11.20;99.90
19652;DHT22;9974;52.146;14.668;2024-02-26T11:17:47;11.30;99.90
19652;DHT22;9974;52.146;14.668;2024-02-26T11:20:13;11.40;99.90
19652;DHT22;9974;52.146;14.668;2024-02-26T11:22:39;11.50;99.90
19652;DHT22;9974;52.146;14.668;2024-02-26T11:25:05;11.60;99.90
19652;DHT22;9974;52.146;14.668;2024-02-26T11:27:32;11.80;99.90
19652;DHT22;9974;52.146;14.668;2024-02-26T11:30:02;11.80;99.90
19652;DHT22;9974;52.146;14.668;2024-02-26T11:32:30;12.10;99.90
19652;DHT22;9974;52.146;14.668;2024-02-26T11:34:56;12.20;99.90
19652;DHT22;9974;52.146;14.668;2024-02-26T11:37:23;12.30;99.90
19652;DHT22;9974;52.146;14.668;2024-02-26T11:39:48;12.40;99.90
19652;DHT22;9974;52.146;14.668;2024-02-26T11:42:16;12.50;99.90
19652;DHT22;9974;52.146;14.668;2024-02-26T11:44:42;12.60;99.90
19652;DHT22;9974;52.146;14.668;2024-02-26T11:47:18;12.70;99.90
19652;DHT22;9974;52.146;14.668;2024-02-26T11:49:44;12.50;99.90
19652;DHT22;9974;52.146;14.668;2024-02-26T11:52:10;12.50;99.90
19652;DHT22;9974;52.146;14.668;2024-02-26T11:54:39;12.60;99.90
19652;DHT22;9974;52.146;14.668;2024-02-26T11:57:22;12.70;99.90
19652;DHT22;9974;52.146;14.668;2024-02-26T11:59:55;12.70;99.90
19652;DHT22;9974;52.146;14.668;2024-02-26T12:05:13;12.80;99.90
19652;DHT22;9974;52.146;14.668;2024-02-26T12:07:45;12.60;99.90
19652;DHT22;9974;52.146;14.668;2024-02-26T12:10:14;12.60;99.90
19652;DHT22;9974;52.146;14.668;2024-02-26T12:12:41;12.60;99.90
19652;DHT22;9974;52.146;14.668;2024-02-26T12:15:07;12.70;99.90
19652;DHT22;9974;52.146;14.668;2024-02-26T12:17:33;12.70;99.90
19652;DHT22;9974;52.146;14.668;2024-02-26T12:20:09;12.60;99.90
19652;DHT22;9974;52.146;14.668;2024-02-26T12:22:35;12.70;99.90
19652;DHT22;9974;52.146;14.668;2024-02-26T12:25:04;12.60;99.90
19652;DHT22;9974;52.146;14.668;2024-02-26T12:27:31;12.60;99.90
19652;DHT22;9974;52.146;14.668;2024-02-26T12:29:56;12.70;99.90
19652;DHT22;9974;52.146;14.668;2024-02-26T12:32:22;12.70;99.90
19652;DHT22;9974;52.146;14.668;2024-02-26T12:34:48;12.70;99.90
19652;DHT22;9974;52.146;14.668;2024-02-26T12:37:14;12.80;99.90
19652;DHT22;9974;52.146;14.668;2024-02-26T12:39:40;12.80;99.90
19652;DHT22;9974;52.146;14.668;2024-02-26T12:42:07;12.80;99.90
19652;DHT22;9974;52.146;14.668;2024-02-26T12:44:32;12.80;99.90
19652;DHT22;9974;52.146;14.668;2024-02-26T12:47:01;12.70;99.90
19652;DHT22;9974;52.146;14.668;2024-02-26T12:49:31;12.60;99.90
19652;DHT22;9974;52.146;14.668;2024-02-26T12:51:56;12.60;99.90
19652;DHT22;9974;52.146;14.668;2024-02-26T12:56:54;12.60;99.90
19652;DHT22;9974;52.146;14.668;2024-02-26T12:59:20;12.40;99.90
19652;DHT22;9974;52.146;14.668;2024-02-26T13:01:46;12.50;99.90
19652;DHT22;9974;52.146;14.668;2024-02-26T13:04:11;12.50;99.90
19652;DHT22;9974;52.146;14.668;2024-02-26T13:06:37;12.60;99.90
19652;DHT22;9974;52.146;14.668;2024-02-26T13:09:03;12.60;99.90
19652;DHT22;9974;52.146;14.668;2024-02-26T13:11:29;12.70;99.90
19652;DHT22;9974;52.146;14.668;2024-02-26T13:13:56;12.60;99.90
19652;DHT22;9974;52.146;14.668;2024-02-26T13:16:24;12.70;99.90
19652;DHT22;9974;52.146;14.668;2024-02-26T13:18:50;12.80;99.90
19652;DHT22;9974;52.146;14.668;2024-02-26T13:21:15;12.70;99.90
19652;DHT22;9974;52.146;14.668;2024-02-26T13:23:41;12.60;99.90
19652;DHT22;9974;52.146;14.668;2024-02-26T13:26:08;12.60;99.90
19652;DHT22;9974;52.146;14.668;2024-02-26T13:28:34;12.60;99.90
19652;DHT22;9974;52.146;14.668;2024-02-26T13:31:00;12.60;99.90
19652;DHT22;9974;52.146;14.668;2024-02-26T13:33:29;12.60;99.90
19652;DHT22;9974;52.146;14.668;2024-02-26T13:35:55;12.60;99.90
19652;DHT22;9974;52.146;14.668;2024-02-26T13:38:21;12.60;99.90
19652;DHT22;9974;52.146;14.668;2024-02-26T13:40:47;13.70;99.90
19652;DHT22;9974;52.146;14.668;2024-02-26T13:43:13;12.50;99.90
19652;DHT22;9974;52.146;14.668;2024-02-26T13:45:39;12.60;99.90
19652;DHT22;9974;52.146;14.668;2024-02-26T13:48:05;12.50;99.90
19652;DHT22;9974;52.146;14.668;2024-02-26T13:50:32;12.60;99.90
19652;DHT22;9974;52.146;14.668;2024-02-26T13:52:58;12.60;99.90
19652;DHT22;9974;52.146;14.668;2024-02-26T13:55:26;12.60;99.90
19652;DHT22;9974;52.146;14.668;2024-02-26T13:57:56;12.60;99.90
19652;DHT22;9974;52.146;14.668;2024-02-26T14:00:22;12.60;99.90
19652;DHT22;9974;52.146;14.668;2024-02-26T14:02:48;12.60;99.90
19652;DHT22;9974;52.146;14.668;2024-02-26T14:05:14;12.60;99.90
19652;DHT22;9974;52.146;14.668;2024-02-26T14:07:39;12.60;99.90
19652;DHT22;9974;52.146;14.668;2024-02-26T14:10:05;12.50;99.90
19652;DHT22;9974;52.146;14.668;2024-02-26T14:12:31;12.50;99.90
19652;DHT22;9974;52.146;14.668;2024-02-26T14:14:56;12.50;99.90
19652;DHT22;9974;52.146;14.668;2024-02-26T14:17:25;12.50;99.90
19652;DHT22;9974;52.146;14.668;2024-02-26T14:19:51;12.40;99.90
19652;DHT22;9974;52.146;14.668;2024-02-26T14:22:17;12.40;99.90
19652;DHT22;9974;52.146;14.668;2024-02-26T14:24:42;12.40;99.90
19652;DHT22;9974;52.146;14.668;2024-02-26T14:27:08;12.40;99.90
19652;DHT22;9974;52.146;14.668;2024-02-26T14:29:35;12.30;99.90
19652;DHT22;9974;52.146;14.668;2024-02-26T14:32:00;12.20;99.90
19652;DHT22;9974;52.146;14.668;2024-02-26T14:34:26;12.20;99.90
19652;DHT22;9974;52.146;14.668;2024-02-26T14:36:52;12.20;99.90
19652;DHT22;9974;52.146;14.668;2024-02-26T14:39:17;12.20;99.90
19652;DHT22;9974;52.146;14.668;2024-02-26T14:41:43;12.10;99.90
19652;DHT22;9974;52.146;14.668;2024-02-26T14:44:09;12.10;99.90
19652;DHT22;9974;52.146;14.668;2024-02-26T14:46:35;12.00;99.90
19652;DHT22;9974;52.146;14.668;2024-02-26T14:49:01;12.00;99.90
19652;DHT22;9974;52.146;14.668;2024-02-26T14:51:27;11.90;99.90
19652;DHT22;9974;52.146;14.668;2024-02-26T14:53:52;11.90;99.90
19652;DHT22;9974;52.146;14.668;2024-02-26T14:56:18;11.90;99.90
19652;DHT22;9974;52.146;14.668;2024-02-26T14:58:44;11.80;99.90
19652;DHT22;9974;52.146;14.668;2024-02-26T15:01:10;11.80;99.90
19652;DHT22;9974;52.146;14.668;2024-02-26T15:03:37;11.70;99.90
19652;DHT22;9974;52.146;14.668;2024-02-26T15:06:02;11.80;99.90
19652;DHT22;9974;52.146;14.668;2024-02-26T15:08:28;11.70;99.90
19652;DHT22;9974;52.146;14.668;2024-02-26T15:10:54;11.80;99.90
19652;DHT22;9974;52.146;14.668;2024-02-26T15:13:19;11.70;99.90
19652;DHT22;9974;52.146;14.668;2024-02-26T15:15:45;11.70;99.90
19652;DHT22;9974;52.146;14.668;2024-02-26T15:18:11;11.70;99.90
19652;DHT22;9974;52.146;14.668;2024-02-26T15:20:44;11.60;99.90
19652;DHT22;9974;52.146;14.668;2024-02-26T15:23:09;11.50;99.90
19652;DHT22;9974;52.146;14.668;2024-02-26T15:25:35;11.50;99.90
19652;DHT22;9974;52.146;14.668;2024-02-26T15:28:01;11.50;99.90
19652;DHT22;9974;52.146;14.668;2024-02-26T15:30:26;11.50;99.90
19652;DHT22;9974;52.146;14.668;2024-02-26T15:32:55;11.40;99.90
19652;DHT22;9974;52.146;14.668;2024-02-26T15:35:21;11.40;99.90
19652;DHT22;9974;52.146;14.668;2024-02-26T15:37:46;11.30;99.90
19652;DHT22;9974;52.146;14.668;2024-02-26T15:40:12;11.30;99.90
19652;DHT22;9974;52.146;14.668;2024-02-26T15:42:38;11.20;99.90
19652;DHT22;9974;52.146;14.668;2024-02-26T15:45:04;11.20;99.90
19652;DHT22;9974;52.146;14.668;2024-02-26T15:47:30;11.20;99.90
19652;DHT22;9974;52.146;14.668;2024-02-26T15:49:56;11.20;99.90